Terminal Aerodrome Forecast
Issued by NWS

Home | Current Version | Previous Version | Text Only | Print | Product List | Glossary Off
Versions: 1 2 3 4 5 6 7 8 9 10 11 12 13 14 15 16 17 18

000
FTUS43 KGRB 240246 AAB
TAFCWA
TAF AMD
KCWA 240246Z 2403/2424 14010KT P6SM OVC025 WS018/19040KT
     FM240500 14006KT P6SM OVC017 WS018/23040KT
      TEMPO 2406/2408 4SM -RA BR
     FM240800 VRB03KT 2SM RA BR OVC007
     FM241400 04005KT 2SM RA BR OVC003
     FM242200 05007KT 4SM -SHRA BR OVC007
      AMD LTD TO CLD VIS AND WIND TIL 241100=

USA.gov is the U.S. government's official web portal to all federal, state and local government web resources and services.